Time;durP1;ratioP1;P1;durP2;ratioP2;P2;SDS_P1;SDS_P2;PMS_P1;PMS_P2;Temp;Humidity;BMP_temperature;BMP_pressure;BME280_temperature;BME280_humidity;BME280_pressure;Samples;Min_cycle;Max_cycle;Signal;HPM_P1;HPM_P2
2023/12/03 00:00:43;;;;;;;9.00;4.10;;;1.20;99.90;;;;;;5075279;28;20056;-83
2023/12/03 00:03:11;;;;;;;9.23;5.00;;;1.20;99.90;;;;;;5075312;28;20052;-82
2023/12/03 00:05:37;;;;;;;6.82;4.20;;;1.10;99.90;;;;;;5074852;28;20275;-82
2023/12/03 00:08:04;;;;;;;6.78;4.25;;;1.20;99.90;;;;;;5075056;28;20048;-82
2023/12/03 00:10:30;;;;;;;7.07;4.70;;;1.20;99.90;;;;;;5074845;28;20049;-83
2023/12/03 00:12:56;;;;;;;13.00;7.53;;;1.20;99.90;;;;;;5073448;28;20044;-82
2023/12/03 00:15:22;;;;;;;7.75;4.90;;;1.20;99.90;;;;;;5074905;28;20086;-82
2023/12/03 00:17:51;;;;;;;6.10;3.87;;;1.20;99.90;;;;;;5073629;28;20549;-82
2023/12/03 00:20:17;;;;;;;7.97;4.68;;;1.20;99.90;;;;;;5074795;28;20282;-82
2023/12/03 00:22:43;;;;;;;7.47;4.10;;;1.20;99.90;;;;;;5073332;28;20051;-82
2023/12/03 00:25:09;;;;;;;7.63;3.80;;;1.30;99.90;;;;;;5074708;28;20040;-82
2023/12/03 00:27:35;;;;;;;7.80;4.32;;;1.30;99.90;;;;;;5074368;28;20052;-82
2023/12/03 00:30:01;;;;;;;6.87;3.93;;;1.30;99.90;;;;;;5073603;28;20045;-83
2023/12/03 00:32:26;;;;;;;6.90;4.03;;;1.30;99.90;;;;;;5074571;28;20051;-82
2023/12/03 00:34:52;;;;;;;6.40;3.90;;;1.40;99.90;;;;;;5073304;28;20048;-83
2023/12/03 00:37:18;;;;;;;6.30;4.00;;;1.40;99.90;;;;;;5074533;28;20048;-82
2023/12/03 00:39:43;;;;;;;5.60;3.27;;;1.40;99.90;;;;;;5072162;28;20040;-83
2023/12/03 00:42:09;;;;;;;4.87;2.90;;;1.30;99.90;;;;;;5071217;28;20040;-84
2023/12/03 00:44:35;;;;;;;4.87;3.07;;;1.40;99.90;;;;;;5070945;28;20052;-84
2023/12/03 00:47:01;;;;;;;7.30;3.72;;;1.30;99.90;;;;;;5072461;28;20040;-84
2023/12/03 00:49:27;;;;;;;8.10;3.30;;;1.40;99.90;;;;;;5072237;28;20086;-84
2023/12/03 00:51:53;;;;;;;8.13;3.93;;;1.30;99.90;;;;;;5072080;28;20055;-84
2023/12/03 00:54:19;;;;;;;6.57;3.17;;;1.30;99.90;;;;;;5071882;28;20037;-85
2023/12/03 00:56:45;;;;;;;5.40;3.30;;;1.40;99.90;;;;;;5071521;28;20337;-84
2023/12/03 00:59:10;;;;;;;5.60;3.03;;;1.30;99.90;;;;;;5073702;28;20067;-83
2023/12/03 01:01:36;;;;;;;7.23;3.40;;;1.50;99.90;;;;;;5075455;28;20052;-84
2023/12/03 01:04:02;;;;;;;6.37;3.23;;;1.30;99.90;;;;;;5073931;28;20048;-83
2023/12/03 01:06:28;;;;;;;5.73;3.30;;;1.30;99.90;;;;;;5073988;28;20043;-83
2023/12/03 01:08:53;;;;;;;6.67;3.43;;;1.20;99.90;;;;;;5073604;28;20497;-83
2023/12/03 01:11:19;;;;;;;7.33;3.73;;;1.20;99.90;;;;;;5073043;28;20388;-83
2023/12/03 01:13:45;;;;;;;6.63;3.57;;;1.20;99.90;;;;;;5072039;28;20041;-83
2023/12/03 01:16:15;;;;;;;8.23;4.23;;;1.20;99.90;;;;;;5072510;28;20040;-84
2023/12/03 01:18:41;;;;;;;6.57;3.38;;;1.20;99.90;;;;;;5072500;28;20361;-84
2023/12/03 01:21:07;;;;;;;6.22;2.85;;;1.20;99.90;;;;;;5072748;28;20388;-84
2023/12/03 01:23:33;;;;;;;6.33;3.47;;;1.20;99.90;;;;;;5072427;28;20045;-84
2023/12/03 01:25:58;;;;;;;5.73;3.27;;;1.10;99.90;;;;;;5072692;28;20083;-84
2023/12/03 01:28:24;;;;;;;7.10;3.37;;;1.10;99.90;;;;;;5072451;28;20047;-84
2023/12/03 01:30:50;;;;;;;6.13;2.63;;;1.00;99.90;;;;;;5072840;28;20374;-84
2023/12/03 01:33:15;;;;;;;6.87;3.70;;;1.20;99.90;;;;;;5072768;28;20091;-84
2023/12/03 01:35:41;;;;;;;5.90;3.17;;;1.10;99.90;;;;;;5071753;28;20048;-84
2023/12/03 01:38:07;;;;;;;7.93;3.53;;;1.10;99.90;;;;;;5072453;28;20045;-84
2023/12/03 01:40:32;;;;;;;6.53;3.33;;;1.10;99.90;;;;;;5072597;28;20052;-83
2023/12/03 01:42:59;;;;;;;7.77;3.53;;;1.10;99.90;;;;;;5073022;28;20044;-84
2023/12/03 01:45:25;;;;;;;7.45;3.53;;;1.10;99.90;;;;;;5073285;28;20087;-84
2023/12/03 01:47:51;;;;;;;5.87;3.57;;;1.00;99.90;;;;;;5073044;28;20087;-83
2023/12/03 01:50:18;;;;;;;5.50;3.13;;;0.90;99.90;;;;;;5072509;28;20548;-84
2023/12/03 01:52:44;;;;;;;6.68;3.55;;;0.90;99.90;;;;;;5071756;28;20447;-84
2023/12/03 01:55:12;;;;;;;6.72;3.53;;;0.90;99.90;;;;;;5055529;28;20453;-83
2023/12/03 01:57:38;;;;;;;8.38;4.43;;;0.90;99.90;;;;;;5071697;28;20079;-85
2023/12/03 02:00:06;;;;;;;8.70;3.90;;;0.80;99.90;;;;;;5073188;28;20056;-83
2023/12/03 02:02:31;;;;;;;7.80;4.32;;;0.80;99.90;;;;;;5073145;28;20396;-83
2023/12/03 02:04:58;;;;;;;7.40;4.10;;;0.90;99.90;;;;;;5072871;28;20105;-83
2023/12/03 02:07:24;;;;;;;8.75;4.65;;;0.80;99.90;;;;;;5073268;28;20044;-83
2023/12/03 02:09:50;;;;;;;9.95;5.45;;;0.90;99.90;;;;;;5071203;28;20085;-84
2023/12/03 02:12:15;;;;;;;8.73;5.37;;;0.80;99.90;;;;;;5072012;28;20095;-83
2023/12/03 02:14:41;;;;;;;10.87;5.70;;;0.80;99.90;;;;;;5072685;28;20045;-83
2023/12/03 02:17:07;;;;;;;10.83;6.67;;;0.70;99.90;;;;;;5055356;28;20108;-83
2023/12/03 02:19:33;;;;;;;9.43;5.40;;;0.80;99.90;;;;;;5072928;28;20508;-83
2023/12/03 02:21:58;;;;;;;7.73;4.90;;;0.80;99.90;;;;;;5072719;28;20345;-83
2023/12/03 02:24:24;;;;;;;7.83;4.37;;;0.80;99.90;;;;;;5054932;28;20056;-83
2023/12/03 02:26:50;;;;;;;7.47;4.43;;;0.80;99.90;;;;;;5072644;28;20427;-83
2023/12/03 02:29:15;;;;;;;8.13;4.70;;;0.80;99.90;;;;;;5073018;28;20044;-83
2023/12/03 02:31:41;;;;;;;7.80;5.03;;;0.80;99.90;;;;;;5072551;28;20063;-84
2023/12/03 02:34:12;;;;;;;7.40;4.67;;;0.80;99.90;;;;;;5071601;28;20040;-83
2023/12/03 02:36:38;;;;;;;11.18;5.40;;;0.70;99.90;;;;;;5074402;28;20052;-83
2023/12/03 02:39:04;;;;;;;10.73;5.28;;;0.70;99.90;;;;;;5076285;28;20067;-83
2023/12/03 02:41:31;;;;;;;8.00;4.78;;;0.70;99.90;;;;;;5075374;28;20429;-83
2023/12/03 02:43:56;;;;;;;8.57;4.47;;;0.60;99.90;;;;;;5074373;28;20039;-83
2023/12/03 02:46:22;;;;;;;7.50;4.50;;;0.70;99.90;;;;;;5072565;28;20048;-83
2023/12/03 02:48:48;;;;;;;6.90;4.30;;;0.70;99.90;;;;;;5074131;28;20484;-83
2023/12/03 02:51:14;;;;;;;7.60;4.28;;;0.70;99.90;;;;;;5074402;28;20053;-83
2023/12/03 02:53:40;;;;;;;8.07;4.97;;;0.70;99.90;;;;;;5073557;28;20109;-84
2023/12/03 02:56:07;;;;;;;6.50;4.37;;;0.60;99.90;;;;;;5073083;28;20523;-84
2023/12/03 02:58:33;;;;;;;7.50;4.10;;;0.60;99.90;;;;;;5075756;28;20057;-83
2023/12/03 03:00:59;;;;;;;7.70;4.30;;;0.60;99.90;;;;;;5075213;28;20452;-83
2023/12/03 03:03:25;;;;;;;6.97;4.60;;;0.60;99.90;;;;;;5076265;28;20041;-83
2023/12/03 03:05:50;;;;;;;7.00;4.67;;;0.60;99.90;;;;;;5058320;28;20403;-83
2023/12/03 03:08:16;;;;;;;7.03;4.33;;;0.50;99.90;;;;;;5076229;28;20123;-83
2023/12/03 03:10:42;;;;;;;6.83;4.43;;;0.40;99.90;;;;;;5058344;28;20388;-83
2023/12/03 03:13:08;;;;;;;7.83;4.67;;;0.50;99.90;;;;;;5075835;28;20495;-84
2023/12/03 03:15:34;;;;;;;9.82;4.70;;;0.50;99.90;;;;;;5079180;28;20052;-84
2023/12/03 03:18:00;;;;;;;6.50;4.05;;;0.40;99.90;;;;;;5076543;28;20050;-84
2023/12/03 03:20:27;;;;;;;6.88;4.07;;;0.50;99.90;;;;;;5075883;28;20044;-85
2023/12/03 03:22:53;;;;;;;6.82;3.80;;;0.50;99.90;;;;;;5075666;28;20043;-84
2023/12/03 03:25:19;;;;;;;6.87;4.37;;;0.60;99.90;;;;;;5058374;28;20057;-85
2023/12/03 03:27:44;;;;;;;6.10;4.03;;;0.40;99.90;;;;;;5074713;28;20044;-85
2023/12/03 03:30:11;;;;;;;6.37;3.97;;;0.40;99.90;;;;;;5074659;28;20376;-84
2023/12/03 03:32:36;;;;;;;7.68;4.55;;;0.40;99.90;;;;;;5074576;28;20098;-84
2023/12/03 03:35:03;;;;;;;6.60;4.70;;;0.40;99.90;;;;;;5074418;28;20049;-85
2023/12/03 03:37:29;;;;;;;7.43;4.78;;;0.40;99.90;;;;;;5075633;28;20066;-85
2023/12/03 03:39:54;;;;;;;9.10;4.73;;;0.40;99.90;;;;;;5075395;28;20536;-85
2023/12/03 03:42:21;;;;;;;6.80;4.37;;;0.40;99.90;;;;;;5075456;28;20495;-85
2023/12/03 03:44:46;;;;;;;6.80;5.00;;;0.40;99.90;;;;;;5074489;28;20174;-84
2023/12/03 03:47:13;;;;;;;7.33;5.40;;;0.40;99.90;;;;;;5074687;28;20131;-85
2023/12/03 03:49:39;;;;;;;8.15;4.60;;;0.40;99.90;;;;;;5074806;28;20059;-85
2023/12/03 03:52:05;;;;;;;8.27;4.60;;;0.40;99.90;;;;;;5074162;28;20048;-85
2023/12/03 03:54:31;;;;;;;8.27;4.95;;;0.40;99.90;;;;;;5075572;28;20044;-85
2023/12/03 03:56:57;;;;;;;7.77;5.57;;;0.40;99.90;;;;;;5074936;28;20392;-85
2023/12/03 03:59:23;;;;;;;11.55;7.30;;;0.30;99.90;;;;;;5073629;28;20048;-85
2023/12/03 04:01:50;;;;;;;11.40;7.47;;;0.30;99.90;;;;;;5075106;28;20052;-85
2023/12/03 04:04:16;;;;;;;8.40;5.82;;;0.20;99.90;;;;;;5074912;28;20048;-85
2023/12/03 04:06:44;;;;;;;8.43;6.27;;;0.30;99.90;;;;;;5075117;28;20051;-85
2023/12/03 04:09:10;;;;;;;9.55;5.68;;;0.30;99.90;;;;;;5074809;28;20140;-85
2023/12/03 04:11:46;;;;;;;8.05;5.47;;;0.30;99.90;;;;;;5073972;28;20098;-85
2023/12/03 04:14:16;;;;;;;10.45;6.82;;;0.30;99.90;;;;;;5074606;28;20065;-85
2023/12/03 04:16:42;;;;;;;11.77;7.20;;;0.30;99.90;;;;;;5074930;28;20084;-85
2023/12/03 04:19:08;;;;;;;9.00;6.68;;;0.30;99.90;;;;;;5074951;28;20051;-85
2023/12/03 04:21:36;;;;;;;9.60;5.90;;;0.20;99.90;;;;;;5074577;28;20459;-85
2023/12/03 04:24:02;;;;;;;10.30;6.65;;;0.20;99.90;;;;;;5073394;28;20091;-85
2023/12/03 04:26:28;;;;;;;8.98;5.88;;;0.20;99.90;;;;;;5074714;28;20055;-85
2023/12/03 04:28:54;;;;;;;11.60;7.23;;;0.20;99.90;;;;;;5073495;28;20040;-84
2023/12/03 04:31:25;;;;;;;10.27;6.67;;;0.20;99.90;;;;;;5074563;28;20595;-85
2023/12/03 04:33:55;;;;;;;13.95;7.63;;;0.10;99.90;;;;;;5074651;28;20041;-84
2023/12/03 04:36:27;;;;;;;18.48;9.52;;;0.20;99.90;;;;;;5073507;28;20055;-84
2023/12/03 04:38:55;;;;;;;10.68;7.03;;;0.10;99.90;;;;;;5074595;28;20044;-85
2023/12/03 04:41:22;;;;;;;12.18;7.35;;;0.10;99.90;;;;;;5073474;28;20488;-85
2023/12/03 04:43:48;;;;;;;12.45;8.18;;;0.20;99.90;;;;;;5074229;28;20032;-85
2023/12/03 04:46:14;;;;;;;12.63;8.40;;;0.10;99.90;;;;;;5074012;28;20101;-85
2023/12/03 04:48:41;;;;;;;12.88;8.00;;;0.10;99.90;;;;;;5073386;28;20180;-85
2023/12/03 04:51:07;;;;;;;10.00;7.38;;;0.10;99.90;;;;;;5073971;28;20496;-85
2023/12/03 04:53:33;;;;;;;16.00;8.55;;;0.10;99.90;;;;;;5074094;28;20091;-85
2023/12/03 04:55:58;;;;;;;29.57;9.37;;;0.10;99.90;;;;;;5073858;28;20056;-85
2023/12/03 04:58:25;;;;;;;24.60;10.20;;;0.10;99.90;;;;;;5073026;28;20045;-85
2023/12/03 05:00:51;;;;;;;35.22;10.18;;;0.10;99.90;;;;;;5073735;28;20052;-85
2023/12/03 05:03:17;;;;;;;39.47;11.35;;;0.10;99.90;;;;;;5073593;28;20052;-85
2023/12/03 05:05:43;;;;;;;56.03;11.83;;;0.00;99.90;;;;;;5056234;28;20059;-85
2023/12/03 05:08:08;;;;;;;108.07;13.87;;;0.10;99.90;;;;;;5072645;28;20438;-85
2023/12/03 05:10:34;;;;;;;142.03;14.00;;;0.00;99.90;;;;;;5072318;28;20051;-85
2023/12/03 05:13:00;;;;;;;150.30;18.27;;;0.00;99.90;;;;;;5072323;28;20083;-86
2023/12/03 05:15:25;;;;;;;71.87;13.33;;;0.00;99.90;;;;;;5073775;28;20131;-85
2023/12/03 05:17:51;;;;;;;140.80;15.60;;;0.00;99.90;;;;;;5073829;28;20090;-86
2023/12/03 05:20:17;;;;;;;96.27;15.30;;;0.00;99.90;;;;;;5072273;28;20044;-86
2023/12/03 05:22:42;;;;;;;50.53;12.30;;;0.10;99.90;;;;;;5073300;28;20564;-86
2023/12/03 05:25:08;;;;;;;70.23;14.97;;;0.10;99.90;;;;;;5071844;28;20039;-86
2023/12/03 05:27:34;;;;;;;95.33;15.63;;;0.10;99.90;;;;;;5072453;28;20506;-85
2023/12/03 05:30:01;;;;;;;80.90;15.87;;;0.20;99.90;;;;;;5072617;28;20078;-85
2023/12/03 05:32:27;;;;;;;53.42;13.00;;;0.20;99.90;;;;;;5073464;28;20049;-85
2023/12/03 05:34:53;;;;;;;103.83;17.37;;;0.20;99.90;;;;;;5075878;28;20549;-85
2023/12/03 05:37:20;;;;;;;94.80;16.40;;;0.30;99.90;;;;;;5072036;28;20048;-85
2023/12/03 05:39:46;;;;;;;64.30;17.90;;;0.20;99.90;;;;;;5073291;28;20501;-85
2023/12/03 05:42:13;;;;;;;62.83;16.87;;;0.30;99.90;;;;;;5072228;28;20040;-85
2023/12/03 05:44:39;;;;;;;95.22;20.73;;;0.30;99.90;;;;;;5072394;28;20040;-85
2023/12/03 05:47:04;;;;;;;271.10;27.90;;;0.40;99.90;;;;;;5072082;28;20433;-85
2023/12/03 05:49:30;;;;;;;232.50;30.93;;;0.40;99.90;;;;;;5073179;28;20051;-85
2023/12/03 05:51:56;;;;;;;199.23;29.60;;;0.50;99.90;;;;;;5055664;28;20044;-85
2023/12/03 05:54:24;;;;;;;141.67;27.20;;;0.40;99.90;;;;;;5072967;28;20045;-84
2023/12/03 05:56:50;;;;;;;119.03;24.80;;;0.50;99.90;;;;;;5055722;28;20094;-84
2023/12/03 05:59:16;;;;;;;188.98;28.42;;;0.50;99.90;;;;;;5072729;28;20096;-84
2023/12/03 06:01:42;;;;;;;184.73;27.47;;;0.50;99.90;;;;;;5073133;28;20087;-84
2023/12/03 06:04:08;;;;;;;177.90;26.97;;;0.50;99.90;;;;;;5072739;28;20040;-84
2023/12/03 06:06:36;;;;;;;269.90;33.27;;;0.60;99.90;;;;;;5073006;28;20074;-85
2023/12/03 06:09:05;;;;;;;250.13;32.88;;;0.40;99.90;;;;;;5055363;28;20040;-84
2023/12/03 06:11:32;;;;;;;189.30;29.20;;;0.50;99.90;;;;;;5075452;28;20044;-84
2023/12/03 06:13:58;;;;;;;239.80;32.05;;;0.50;99.90;;;;;;5079348;28;20044;-85
2023/12/03 06:16:24;;;;;;;133.82;28.13;;;0.50;99.90;;;;;;5061678;28;20484;-85
2023/12/03 06:18:50;;;;;;;141.97;30.53;;;0.60;99.90;;;;;;5078677;28;20127;-85
2023/12/03 06:21:16;;;;;;;179.97;32.60;;;0.60;99.90;;;;;;5079580;28;20052;-86
2023/12/03 06:23:42;;;;;;;206.83;36.83;;;0.70;99.90;;;;;;5079501;28;20040;-85
2023/12/03 06:26:08;;;;;;;164.83;32.77;;;0.70;99.90;;;;;;5078289;28;20113;-86
2023/12/03 06:28:34;;;;;;;202.93;31.20;;;0.70;99.90;;;;;;5078279;28;20488;-85
2023/12/03 06:31:00;;;;;;;167.23;29.63;;;0.70;99.90;;;;;;5079638;28;20059;-85
2023/12/03 06:33:25;;;;;;;203.40;30.48;;;0.80;99.90;;;;;;5079253;28;20037;-84
2023/12/03 06:35:53;;;;;;;152.87;29.27;;;0.80;99.90;;;;;;5078185;28;20071;-83
2023/12/03 06:38:18;;;;;;;259.85;36.00;;;0.80;99.90;;;;;;5078087;28;20048;-83
2023/12/03 06:40:45;;;;;;;118.13;27.07;;;0.80;99.90;;;;;;5078007;28;20051;-83
2023/12/03 06:43:10;;;;;;;150.05;29.42;;;0.80;99.90;;;;;;5079099;28;20037;-84
2023/12/03 06:45:37;;;;;;;120.87;27.80;;;0.90;99.90;;;;;;5078432;28;20388;-83
2023/12/03 06:48:03;;;;;;;158.10;28.80;;;0.90;99.90;;;;;;5078527;28;20278;-83
2023/12/03 06:50:29;;;;;;;104.80;28.38;;;0.90;99.90;;;;;;5078049;28;20056;-83
2023/12/03 06:52:55;;;;;;;139.00;30.20;;;1.00;99.90;;;;;;5079256;28;20050;-83
2023/12/03 06:55:21;;;;;;;122.87;28.17;;;1.00;99.90;;;;;;5079023;28;20080;-84
2023/12/03 06:57:46;;;;;;;134.13;30.10;;;1.00;99.90;;;;;;5078102;28;20041;-83
2023/12/03 07:00:13;;;;;;;131.47;29.80;;;1.00;99.90;;;;;;5079099;28;20102;-84
2023/12/03 07:02:38;;;;;;;119.28;27.75;;;1.10;99.90;;;;;;5078205;28;20052;-84
2023/12/03 07:05:05;;;;;;;123.87;28.57;;;1.10;99.90;;;;;;5078054;28;20377;-83
2023/12/03 07:07:30;;;;;;;109.40;27.63;;;1.10;99.90;;;;;;5077955;28;20052;-84
2023/12/03 07:09:56;;;;;;;138.47;30.03;;;1.10;99.90;;;;;;5079286;28;20049;-84
2023/12/03 07:12:22;;;;;;;121.37;29.87;;;1.10;99.90;;;;;;5078978;28;20052;-84
2023/12/03 07:14:48;;;;;;;103.33;30.87;;;1.20;99.90;;;;;;5079155;28;20103;-84
2023/12/03 07:17:13;;;;;;;125.73;28.57;;;1.20;99.90;;;;;;5078877;28;20044;-84
2023/12/03 07:19:46;;;;;;;128.67;32.57;;;1.20;99.90;;;;;;5061351;28;20048;-83
2023/12/03 07:22:12;;;;;;;130.38;30.60;;;1.30;99.90;;;;;;5077906;28;20527;-83
2023/12/03 07:24:39;;;;;;;137.80;32.97;;;1.20;99.90;;;;;;5074440;28;20052;-83
2023/12/03 07:27:05;;;;;;;158.55;35.95;;;1.30;99.90;;;;;;5074310;28;20056;-83
2023/12/03 07:29:31;;;;;;;173.25;40.72;;;1.20;99.90;;;;;;5074522;28;20045;-83
2023/12/03 07:31:57;;;;;;;172.73;33.93;;;1.20;99.90;;;;;;5075654;28;20048;-83
2023/12/03 07:34:23;;;;;;;123.77;30.53;;;1.30;99.90;;;;;;5073937;28;20279;-83
2023/12/03 07:36:48;;;;;;;150.27;36.27;;;1.40;99.90;;;;;;5058006;28;20059;-82
2023/12/03 07:39:14;;;;;;;132.53;30.53;;;1.30;99.90;;;;;;5075676;28;20041;-83
2023/12/03 07:41:40;;;;;;;119.10;28.93;;;1.40;99.90;;;;;;5075051;28;20044;-82
2023/12/03 07:44:06;;;;;;;126.33;30.37;;;1.30;99.90;;;;;;5057619;28;20048;-81
2023/12/03 07:46:32;;;;;;;120.38;31.98;;;1.40;99.90;;;;;;5075146;28;20076;-82
2023/12/03 07:48:58;;;;;;;108.25;33.13;;;1.30;99.90;;;;;;5075628;28;20059;-82
2023/12/03 07:51:24;;;;;;;113.20;28.10;;;1.40;99.90;;;;;;5074173;28;20052;-82
2023/12/03 07:53:50;;;;;;;117.50;32.53;;;1.40;99.90;;;;;;5075526;28;20328;-82
2023/12/03 07:56:16;;;;;;;114.73;29.23;;;1.30;99.90;;;;;;5075241;28;20075;-81
2023/12/03 07:58:41;;;;;;;140.00;31.63;;;1.40;99.90;;;;;;5073823;28;20135;-80
2023/12/03 08:01:07;;;;;;;116.13;29.47;;;1.40;99.90;;;;;;5075258;28;20049;-81
2023/12/03 08:03:33;;;;;;;142.55;32.75;;;1.40;99.90;;;;;;5073789;28;20080;-82
2023/12/03 08:05:59;;;;;;;136.37;33.43;;;1.40;99.90;;;;;;5075027;28;20131;-81
2023/12/03 08:08:24;;;;;;;134.20;35.87;;;1.40;99.90;;;;;;5074816;28;20040;-80
2023/12/03 08:10:50;;;;;;;132.60;33.20;;;1.50;99.90;;;;;;5074938;28;20056;-80
2023/12/03 08:13:16;;;;;;;109.80;30.17;;;1.50;99.90;;;;;;5073957;28;20052;-79
2023/12/03 08:15:41;;;;;;;133.13;28.97;;;1.50;99.90;;;;;;5074714;28;20044;-79
2023/12/03 08:18:07;;;;;;;122.07;28.17;;;1.50;99.90;;;;;;5074868;28;20047;-80
2023/12/03 08:20:33;;;;;;;105.70;28.97;;;1.50;99.90;;;;;;5056905;28;20480;-80
2023/12/03 08:22:58;;;;;;;115.13;30.73;;;1.50;99.90;;;;;;5074694;28;20392;-80
2023/12/03 08:25:24;;;;;;;109.27;30.07;;;1.50;99.90;;;;;;5074506;28;20055;-81
2023/12/03 08:27:51;;;;;;;96.53;29.70;;;1.50;99.90;;;;;;5074523;28;20131;-80
2023/12/03 08:30:17;;;;;;;91.43;31.63;;;1.50;99.90;;;;;;5075957;28;20044;-80
2023/12/03 08:32:43;;;;;;;96.72;33.63;;;1.50;99.90;;;;;;5073278;28;20060;-80
2023/12/03 08:35:09;;;;;;;97.73;34.13;;;1.60;99.90;;;;;;5072453;28;20059;-80
2023/12/03 08:37:35;;;;;;;109.40;37.10;;;1.60;99.90;;;;;;5074320;28;20087;-80
2023/12/03 08:40:00;;;;;;;100.40;36.00;;;1.60;99.90;;;;;;5074372;28;20419;-80
2023/12/03 08:42:26;;;;;;;101.10;36.67;;;1.60;99.90;;;;;;5073986;28;20575;-81
2023/12/03 08:44:52;;;;;;;95.27;38.03;;;1.60;99.90;;;;;;5074299;28;20055;-80
2023/12/03 08:47:18;;;;;;;102.67;39.90;;;1.70;99.90;;;;;;5074065;28;20127;-80
2023/12/03 08:49:43;;;;;;;108.83;40.53;;;1.70;99.90;;;;;;5072728;28;20044;-79
2023/12/03 08:52:10;;;;;;;99.40;38.27;;;1.60;99.90;;;;;;5074068;28;20044;-80
2023/12/03 08:54:36;;;;;;;108.93;39.92;;;1.70;99.90;;;;;;5072925;28;20056;-80
2023/12/03 08:57:02;;;;;;;97.57;38.60;;;1.70;99.90;;;;;;5056454;28;20488;-81
2023/12/03 08:59:28;;;;;;;94.00;40.33;;;1.70;99.90;;;;;;5072418;28;20053;-80
2023/12/03 09:01:54;;;;;;;91.30;41.33;;;1.70;99.90;;;;;;5073614;28;20048;-81
2023/12/03 09:04:19;;;;;;;95.40;42.10;;;1.70;99.90;;;;;;5073777;28;20141;-80
2023/12/03 09:06:46;;;;;;;89.60;40.60;;;1.70;99.90;;;;;;5072617;28;20048;-80
2023/12/03 09:09:12;;;;;;;87.47;40.45;;;1.80;99.90;;;;;;5073867;28;20040;-80
2023/12/03 09:11:41;;;;;;;88.13;41.20;;;1.80;99.90;;;;;;5073460;28;20063;-80
2023/12/03 09:14:07;;;;;;;86.13;41.42;;;1.80;99.90;;;;;;5072972;28;20401;-80
2023/12/03 09:16:33;;;;;;;84.20;42.43;;;1.70;99.90;;;;;;5073398;28;20059;-80
2023/12/03 09:18:59;;;;;;;79.80;41.87;;;1.80;99.90;;;;;;5073867;28;20050;-80
2023/12/03 09:21:24;;;;;;;84.53;41.73;;;1.80;99.90;;;;;;5073602;28;20074;-82
2023/12/03 09:23:50;;;;;;;84.13;41.00;;;1.90;99.90;;;;;;5055462;28;20045;-80
2023/12/03 09:26:16;;;;;;;76.90;40.00;;;1.80;99.90;;;;;;5072480;28;20132;-79
2023/12/03 09:28:42;;;;;;;78.93;41.23;;;1.90;99.90;;;;;;5055731;28;20040;-81
2023/12/03 09:31:07;;;;;;;71.47;40.37;;;1.90;99.90;;;;;;5072746;28;20044;-79
2023/12/03 09:33:33;;;;;;;65.83;37.43;;;1.90;99.90;;;;;;5073224;28;20040;-78
2023/12/03 09:35:59;;;;;;;82.13;46.27;;;1.80;99.90;;;;;;5074331;28;20064;-85
2023/12/03 09:38:25;;;;;;;79.90;41.40;;;1.80;99.90;;;;;;5072126;28;20051;-78
2023/12/03 09:40:55;;;;;;;74.07;40.57;;;1.80;99.90;;;;;;5072758;28;20041;-81
2023/12/03 09:43:23;;;;;;;76.82;43.28;;;1.90;99.90;;;;;;5073322;28;20043;-80
2023/12/03 09:45:50;;;;;;;74.35;41.15;;;1.90;99.90;;;;;;5072147;28;20072;-77
2023/12/03 09:48:19;;;;;;;67.88;39.35;;;1.90;99.90;;;;;;5073122;28;20416;-81
2023/12/03 09:50:45;;;;;;;72.55;40.17;;;1.90;99.90;;;;;;5072516;28;20083;-79
2023/12/03 09:53:12;;;;;;;62.65;36.83;;;1.90;99.90;;;;;;5071910;28;20048;-77
2023/12/03 09:55:40;;;;;;;75.90;40.85;;;1.90;99.90;;;;;;5072902;28;20396;-79
2023/12/03 09:58:10;;;;;;;73.82;44.58;;;1.90;99.90;;;;;;5073038;28;20091;-77
2023/12/03 10:00:40;;;;;;;65.50;39.85;;;1.90;99.90;;;;;;5071189;28;20048;-79
2023/12/03 10:03:05;;;;;;;66.50;39.88;;;2.00;99.90;;;;;;5072822;28;20086;-79
2023/12/03 10:05:32;;;;;;;64.97;39.73;;;1.90;99.90;;;;;;5072364;28;20044;-82
2023/12/03 10:07:58;;;;;;;66.75;40.13;;;1.90;99.90;;;;;;5072676;28;20462;-77
2023/12/03 10:10:28;;;;;;;58.75;36.58;;;1.90;99.90;;;;;;5072973;28;20091;-76
2023/12/03 10:12:55;;;;;;;60.88;37.65;;;1.90;99.90;;;;;;5072502;28;20040;-78
2023/12/03 10:15:21;;;;;;;63.90;38.17;;;1.90;99.90;;;;;;5072537;28;20041;-82
2023/12/03 10:17:49;;;;;;;54.85;35.28;;;1.90;99.90;;;;;;5072236;28;20040;-83
2023/12/03 10:20:20;;;;;;;66.47;39.33;;;1.90;99.90;;;;;;5066610;28;20051;-77
2023/12/03 10:22:46;;;;;;;64.07;41.20;;;1.90;99.90;;;;;;5070767;28;20125;-78
2023/12/03 10:25:35;;;;;;;64.50;39.55;;;1.90;99.90;;;;;;5072549;28;20047;-79
2023/12/03 10:28:05;;;;;;;63.38;40.20;;;1.90;99.90;;;;;;5071896;28;20044;-78
2023/12/03 10:30:31;;;;;;;61.85;38.80;;;2.00;99.90;;;;;;5069937;28;20052;-83
2023/12/03 10:32:58;;;;;;;68.15;42.53;;;2.00;99.90;;;;;;5069519;28;20097;-80
2023/12/03 10:35:24;;;;;;;54.88;35.15;;;2.00;99.90;;;;;;5071753;28;20090;-76
2023/12/03 10:37:50;;;;;;;55.38;36.05;;;2.00;99.90;;;;;;5071899;28;20048;-80
2023/12/03 10:40:18;;;;;;;59.07;36.23;;;2.00;99.90;;;;;;5070848;28;20040;-79
2023/12/03 10:42:47;;;;;;;60.90;34.90;;;2.00;99.90;;;;;;5069222;28;20053;-82
2023/12/03 10:45:15;;;;;;;51.38;33.38;;;2.10;99.90;;;;;;5071742;28;20135;-78
2023/12/03 10:47:42;;;;;;;50.17;33.65;;;2.10;99.90;;;;;;5070820;28;20417;-80
2023/12/03 10:50:09;;;;;;;55.10;35.17;;;2.10;99.90;;;;;;5071611;28;20057;-79
2023/12/03 10:52:37;;;;;;;57.15;35.45;;;2.10;99.90;;;;;;5070973;28;20796;-79
2023/12/03 10:55:03;;;;;;;49.13;32.90;;;2.20;99.90;;;;;;5072081;28;20041;-77
2023/12/03 10:57:31;;;;;;;44.88;30.73;;;2.20;99.90;;;;;;5072360;28;20460;-79
2023/12/03 11:00:05;;;;;;;48.75;30.73;;;2.20;99.90;;;;;;5073424;28;20057;-80
2023/12/03 11:02:38;;;;;;;45.35;29.10;;;2.20;99.90;;;;;;5074468;28;20476;-81
2023/12/03 11:05:06;;;;;;;44.88;30.33;;;2.30;99.90;;;;;;5074319;28;20066;-82
2023/12/03 11:07:33;;;;;;;44.75;29.58;;;2.20;99.90;;;;;;5072346;28;20443;-80
2023/12/03 11:09:59;;;;;;;43.78;28.70;;;2.30;99.90;;;;;;5074292;28;20059;-80
2023/12/03 11:12:25;;;;;;;41.93;29.07;;;2.20;99.90;;;;;;5075606;28;20048;-80
2023/12/03 11:14:55;;;;;;;44.50;27.58;;;2.20;99.90;;;;;;5075551;28;20354;-79
2023/12/03 11:17:28;;;;;;;40.42;26.42;;;2.20;99.90;;;;;;5074780;28;20389;-81
2023/12/03 11:20:17;;;;;;;45.28;30.38;;;2.10;99.90;;;;;;5075151;28;20047;-81
2023/12/03 11:23:01;;;;;;;47.58;27.90;;;2.20;99.90;;;;;;5073151;28;20083;-83
2023/12/03 11:25:57;;;;;;;44.30;27.83;;;2.10;99.90;;;;;;5075082;28;20048;-82
2023/12/03 11:28:22;;;;;;;47.03;28.67;;;2.10;99.90;;;;;;5068446;28;20106;-83
2023/12/03 11:30:48;;;;;;;42.50;28.27;;;2.20;99.90;;;;;;5070771;28;20037;-86
2023/12/03 11:33:19;;;;;;;43.33;26.87;;;2.20;99.90;;;;;;5063881;28;20271;-80
2023/12/03 11:35:46;;;;;;;44.58;27.35;;;2.20;99.90;;;;;;5064099;28;20481;-84
2023/12/03 11:38:21;;;;;;;50.58;29.60;;;2.30;99.90;;;;;;5063001;28;20044;-80
2023/12/03 11:40:48;;;;;;;47.58;28.65;;;2.20;99.90;;;;;;5075081;28;20496;-79
2023/12/03 11:43:28;;;;;;;50.75;30.85;;;2.30;99.90;;;;;;5075357;28;20049;-78
2023/12/03 11:45:54;;;;;;;51.00;31.98;;;2.20;99.90;;;;;;5075371;28;20047;-80
2023/12/03 11:48:21;;;;;;;57.87;37.53;;;2.20;99.90;;;;;;5075486;28;20048;-81
2023/12/03 11:50:48;;;;;;;45.90;29.20;;;2.20;99.90;;;;;;5075217;28;20047;-81
2023/12/03 11:53:15;;;;;;;62.70;38.05;;;2.30;99.90;;;;;;5074903;28;20485;-80
2023/12/03 11:55:49;;;;;;;57.15;32.17;;;2.20;99.90;;;;;;5075099;28;20076;-81
2023/12/03 11:58:15;;;;;;;48.10;29.92;;;2.20;99.90;;;;;;5075297;28;20045;-80
2023/12/03 12:00:41;;;;;;;48.28;29.15;;;2.20;99.90;;;;;;5074924;28;20056;-83
2023/12/03 12:03:08;;;;;;;48.63;30.02;;;2.20;99.90;;;;;;5075168;28;20083;-80
2023/12/03 12:05:48;;;;;;;45.45;28.40;;;2.20;99.90;;;;;;5075265;28;20052;-79
2023/12/03 12:08:20;;;;;;;50.72;29.95;;;2.20;99.90;;;;;;5074840;28;20045;-79
2023/12/03 12:10:45;;;;;;;47.45;30.08;;;2.20;99.90;;;;;;5074438;28;20067;-80
2023/12/03 12:13:11;;;;;;;46.87;28.83;;;2.20;99.90;;;;;;5075137;28;20036;-80
2023/12/03 12:15:37;;;;;;;45.38;28.52;;;2.30;99.90;;;;;;5074909;28;20515;-82
2023/12/03 12:18:05;;;;;;;45.57;29.80;;;2.20;99.90;;;;;;5073467;28;20079;-85
2023/12/03 12:20:32;;;;;;;46.97;28.80;;;2.20;99.90;;;;;;5074394;28;20441;-85
2023/12/03 12:22:58;;;;;;;45.53;27.38;;;2.20;99.90;;;;;;5074903;28;20393;-87
2023/12/03 12:25:25;;;;;;;48.77;31.20;;;2.20;99.90;;;;;;5074333;28;20044;-81
2023/12/03 12:27:53;;;;;;;49.33;30.73;;;2.20;99.90;;;;;;5074393;28;20041;-82
2023/12/03 12:30:23;;;;;;;46.15;27.77;;;2.30;99.90;;;;;;5075014;28;20048;-81
2023/12/03 12:32:54;;;;;;;43.45;28.08;;;2.30;99.90;;;;;;5074025;28;20041;-80
2023/12/03 12:35:22;;;;;;;42.30;26.50;;;2.30;99.90;;;;;;5073777;28;20070;-80
2023/12/03 12:38:01;;;;;;;41.40;26.58;;;2.30;99.90;;;;;;5074237;28;20037;-81